sensor_id;sensor_type;location;lat;lon;timestamp;pressure;altitude;pressure_sealevel;temperature;humidity
46392;BME280;32098;49.448;7.904;2023-03-11T00:00:42;97166.31;;;1.19;56.04
46392;BME280;32098;49.448;7.904;2023-03-11T00:03:14;97166.94;;;1.21;55.90
46392;BME280;32098;49.448;7.904;2023-03-11T00:05:42;97162.69;;;1.20;55.33
46392;BME280;32098;49.448;7.904;2023-03-11T00:08:13;97170.81;;;1.25;55.69
46392;BME280;32098;49.448;7.904;2023-03-11T00:10:41;97179.31;;;1.27;55.64
46392;BME280;32098;49.448;7.904;2023-03-11T00:13:10;97175.69;;;1.28;55.33
46392;BME280;32098;49.448;7.904;2023-03-11T00:15:38;97143.47;;;1.13;54.72
46392;BME280;32098;49.448;7.904;2023-03-11T00:18:05;97184.97;;;1.31;55.37
46392;BME280;32098;49.448;7.904;2023-03-11T00:20:35;97184.34;;;1.29;55.28
46392;BME280;32098;49.448;7.904;2023-03-11T00:23:03;97177.88;;;1.25;55.15
46392;BME280;32098;49.448;7.904;2023-03-11T00:25:32;97193.09;;;1.36;54.95
46392;BME280;32098;49.448;7.904;2023-03-11T00:27:59;97187.00;;;1.29;55.34
46392;BME280;32098;49.448;7.904;2023-03-11T00:30:27;97190.44;;;1.29;55.59
46392;BME280;32098;49.448;7.904;2023-03-11T00:32:55;97187.59;;;1.31;55.28
46392;BME280;32098;49.448;7.904;2023-03-11T00:35:24;97203.34;;;1.18;55.27
46392;BME280;32098;49.448;7.904;2023-03-11T00:37:53;97196.69;;;1.22;55.69
46392;BME280;32098;49.448;7.904;2023-03-11T00:40:22;97206.00;;;1.24;55.92
46392;BME280;32098;49.448;7.904;2023-03-11T00:42:48;97162.19;;;0.97;55.27
46392;BME280;32098;49.448;7.904;2023-03-11T00:45:15;97226.25;;;1.30;56.02
46392;BME280;32098;49.448;7.904;2023-03-11T00:47:42;97198.56;;;1.34;55.87
46392;BME280;32098;49.448;7.904;2023-03-11T00:50:09;97201.78;;;1.36;56.17
46392;BME280;32098;49.448;7.904;2023-03-11T00:52:38;97187.41;;;1.26;55.53
46392;BME280;32098;49.448;7.904;2023-03-11T00:55:05;97195.91;;;1.34;55.72
46392;BME280;32098;49.448;7.904;2023-03-11T00:57:33;97189.41;;;1.24;55.28
46392;BME280;32098;49.448;7.904;2023-03-11T01:00:00;97202.69;;;1.09;55.42
46392;BME280;32098;49.448;7.904;2023-03-11T01:02:27;97208.72;;;1.03;55.75
46392;BME280;32098;49.448;7.904;2023-03-11T01:04:54;97198.59;;;1.00;55.95
46392;BME280;32098;49.448;7.904;2023-03-11T01:07:21;97206.66;;;0.99;55.65
46392;BME280;32098;49.448;7.904;2023-03-11T01:09:48;97196.97;;;0.99;56.40
46392;BME280;32098;49.448;7.904;2023-03-11T01:12:14;97215.50;;;0.91;56.58
46392;BME280;32098;49.448;7.904;2023-03-11T01:14:41;97196.34;;;0.97;56.41
46392;BME280;32098;49.448;7.904;2023-03-11T01:17:07;97203.78;;;0.94;56.30
46392;BME280;32098;49.448;7.904;2023-03-11T01:19:34;97206.09;;;1.03;56.35
46392;BME280;32098;49.448;7.904;2023-03-11T01:22:00;97195.91;;;0.94;55.92
46392;BME280;32098;49.448;7.904;2023-03-11T01:24:27;97193.69;;;0.91;55.93
46392;BME280;32098;49.448;7.904;2023-03-11T01:26:53;97187.41;;;0.85;56.19
46392;BME280;32098;49.448;7.904;2023-03-11T01:29:20;97194.47;;;0.84;56.20
46392;BME280;32098;49.448;7.904;2023-03-11T01:31:46;97202.13;;;0.86;55.54
46392;BME280;32098;49.448;7.904;2023-03-11T01:34:13;97210.22;;;0.84;56.15
46392;BME280;32098;49.448;7.904;2023-03-11T01:36:40;97200.69;;;0.77;56.76
46392;BME280;32098;49.448;7.904;2023-03-11T01:39:06;97212.97;;;0.70;56.71
46392;BME280;32098;49.448;7.904;2023-03-11T01:41:33;97216.22;;;0.72;56.99
46392;BME280;32098;49.448;7.904;2023-03-11T01:44:00;97213.31;;;0.60;57.25
46392;BME280;32098;49.448;7.904;2023-03-11T01:46:36;97223.81;;;0.60;57.45
46392;BME280;32098;49.448;7.904;2023-03-11T01:49:10;97198.72;;;0.30;57.16
46392;BME280;32098;49.448;7.904;2023-03-11T01:51:42;97251.81;;;0.53;57.69
46392;BME280;32098;49.448;7.904;2023-03-11T01:54:15;97246.44;;;0.61;57.67
46392;BME280;32098;49.448;7.904;2023-03-11T01:56:44;97235.41;;;0.45;57.24
46392;BME280;32098;49.448;7.904;2023-03-11T01:59:13;97263.75;;;0.56;57.75
46392;BME280;32098;49.448;7.904;2023-03-11T02:02:30;97254.91;;;0.57;57.51
46392;BME280;32098;49.448;7.904;2023-03-11T02:05:01;97250.00;;;0.54;58.14
46392;BME280;32098;49.448;7.904;2023-03-11T02:07:28;97243.31;;;0.51;57.42
46392;BME280;32098;49.448;7.904;2023-03-11T02:09:54;97243.47;;;0.43;58.06
46392;BME280;32098;49.448;7.904;2023-03-11T02:12:21;97228.91;;;0.41;58.41
46392;BME280;32098;49.448;7.904;2023-03-11T02:14:50;97226.06;;;0.36;58.06
46392;BME280;32098;49.448;7.904;2023-03-11T02:17:17;97227.28;;;0.40;57.78
46392;BME280;32098;49.448;7.904;2023-03-11T02:22:23;97229.28;;;0.38;58.12
46392;BME280;32098;49.448;7.904;2023-03-11T02:27:46;97235.16;;;0.40;58.47
46392;BME280;32098;49.448;7.904;2023-03-11T02:30:16;97238.59;;;0.40;58.40
46392;BME280;32098;49.448;7.904;2023-03-11T02:32:44;97238.97;;;0.37;58.24
46392;BME280;32098;49.448;7.904;2023-03-11T02:35:16;97243.38;;;0.30;58.74
46392;BME280;32098;49.448;7.904;2023-03-11T02:37:45;97244.19;;;0.31;59.01
46392;BME280;32098;49.448;7.904;2023-03-11T02:42:51;97238.47;;;0.27;58.93
46392;BME280;32098;49.448;7.904;2023-03-11T02:45:21;97241.69;;;0.22;58.63
46392;BME280;32098;49.448;7.904;2023-03-11T02:47:51;97240.00;;;0.15;59.12
46392;BME280;32098;49.448;7.904;2023-03-11T02:50:20;97238.44;;;0.20;58.91
46392;BME280;32098;49.448;7.904;2023-03-11T02:52:48;97231.91;;;0.16;58.83
46392;BME280;32098;49.448;7.904;2023-03-11T02:55:15;97239.63;;;0.18;59.30
46392;BME280;32098;49.448;7.904;2023-03-11T02:57:43;97245.50;;;0.20;58.74
46392;BME280;32098;49.448;7.904;2023-03-11T03:00:10;97243.28;;;0.23;59.25
46392;BME280;32098;49.448;7.904;2023-03-11T03:02:49;97245.13;;;0.23;59.34
46392;BME280;32098;49.448;7.904;2023-03-11T03:05:19;97246.06;;;0.15;60.00
46392;BME280;32098;49.448;7.904;2023-03-11T03:07:46;97252.31;;;0.14;59.48
46392;BME280;32098;49.448;7.904;2023-03-11T03:10:14;97248.03;;;0.13;59.79
46392;BME280;32098;49.448;7.904;2023-03-11T03:12:41;97256.13;;;0.12;59.56
46392;BME280;32098;49.448;7.904;2023-03-11T03:15:09;97256.69;;;0.07;59.71
46392;BME280;32098;49.448;7.904;2023-03-11T03:17:36;97261.31;;;0.05;59.94
46392;BME280;32098;49.448;7.904;2023-03-11T03:20:06;97256.69;;;0.07;60.46
46392;BME280;32098;49.448;7.904;2023-03-11T03:22:39;97266.34;;;0.07;60.10
46392;BME280;32098;49.448;7.904;2023-03-11T03:25:09;97265.75;;;0.05;60.35
46392;BME280;32098;49.448;7.904;2023-03-11T03:27:36;97267.81;;;0.09;59.68
46392;BME280;32098;49.448;7.904;2023-03-11T03:30:05;97271.81;;;0.05;60.31
46392;BME280;32098;49.448;7.904;2023-03-11T03:32:32;97272.44;;;0.07;59.79
46392;BME280;32098;49.448;7.904;2023-03-11T03:35:01;97265.28;;;0.01;60.09
46392;BME280;32098;49.448;7.904;2023-03-11T03:37:49;97273.41;;;0.06;60.38
46392;BME280;32098;49.448;7.904;2023-03-11T03:40:16;97273.41;;;0.06;60.14
46392;BME280;32098;49.448;7.904;2023-03-11T03:42:43;97281.13;;;0.08;60.05
46392;BME280;32098;49.448;7.904;2023-03-11T03:45:10;97274.59;;;0.04;60.36
46392;BME280;32098;49.448;7.904;2023-03-11T03:47:37;97285.56;;;0.07;60.42
46392;BME280;32098;49.448;7.904;2023-03-11T03:50:06;97280.31;;;0.07;60.15
46392;BME280;32098;49.448;7.904;2023-03-11T03:52:34;97287.31;;;0.00;60.47
46392;BME280;32098;49.448;7.904;2023-03-11T03:55:01;97291.63;;;-0.07;60.28
46392;BME280;32098;49.448;7.904;2023-03-11T03:57:28;97293.28;;;-0.06;60.81
46392;BME280;32098;49.448;7.904;2023-03-11T03:59:55;97288.59;;;-0.10;60.59
46392;BME280;32098;49.448;7.904;2023-03-11T04:02:22;97294.72;;;-0.03;60.73
46392;BME280;32098;49.448;7.904;2023-03-11T04:04:50;97295.44;;;-0.09;61.03
46392;BME280;32098;49.448;7.904;2023-03-11T04:07:16;97283.66;;;-0.20;62.05
46392;BME280;32098;49.448;7.904;2023-03-11T04:09:43;97300.28;;;-0.13;61.17
46392;BME280;32098;49.448;7.904;2023-03-11T04:12:14;97299.00;;;-0.17;62.37
46392;BME280;32098;49.448;7.904;2023-03-11T04:14:41;97292.75;;;-0.16;62.10
46392;BME280;32098;49.448;7.904;2023-03-11T04:17:10;97294.50;;;-0.23;62.38
46392;BME280;32098;49.448;7.904;2023-03-11T04:19:37;97318.53;;;-0.19;62.32
46392;BME280;32098;49.448;7.904;2023-03-11T04:22:03;97320.09;;;-0.25;61.93
46392;BME280;32098;49.448;7.904;2023-03-11T04:24:30;97308.59;;;-0.24;62.62
46392;BME280;32098;49.448;7.904;2023-03-11T04:26:57;97308.59;;;-0.24;61.83
46392;BME280;32098;49.448;7.904;2023-03-11T04:29:23;97311.78;;;-0.28;62.64
46392;BME280;32098;49.448;7.904;2023-03-11T04:31:52;97304.47;;;-0.33;62.67
46392;BME280;32098;49.448;7.904;2023-03-11T04:34:18;97307.09;;;-0.33;63.66
46392;BME280;32098;49.448;7.904;2023-03-11T04:36:45;97301.50;;;-0.45;64.02
46392;BME280;32098;49.448;7.904;2023-03-11T04:39:14;97308.44;;;-0.37;63.65
46392;BME280;32098;49.448;7.904;2023-03-11T04:41:42;97319.31;;;-0.40;63.42
46392;BME280;32098;49.448;7.904;2023-03-11T04:44:13;97329.53;;;-0.45;63.23
46392;BME280;32098;49.448;7.904;2023-03-11T04:46:40;97325.28;;;-0.46;63.63
46392;BME280;32098;49.448;7.904;2023-03-11T04:49:08;97322.91;;;-0.41;63.58
46392;BME280;32098;49.448;7.904;2023-03-11T04:51:36;97330.16;;;-0.43;62.63
46392;BME280;32098;49.448;7.904;2023-03-11T04:54:04;97326.28;;;-0.47;62.55
46392;BME280;32098;49.448;7.904;2023-03-11T04:56:30;97321.66;;;-0.45;62.72
46392;BME280;32098;49.448;7.904;2023-03-11T04:58:57;97324.03;;;-0.50;62.93
46392;BME280;32098;49.448;7.904;2023-03-11T05:01:25;97325.63;;;-0.49;62.87
46392;BME280;32098;49.448;7.904;2023-03-11T05:03:51;97330.34;;;-0.59;63.63
46392;BME280;32098;49.448;7.904;2023-03-11T05:06:18;97330.53;;;-0.75;64.27
46392;BME280;32098;49.448;7.904;2023-03-11T05:08:45;97341.66;;;-0.73;64.15
46392;BME280;32098;49.448;7.904;2023-03-11T05:11:12;97341.84;;;-0.75;64.57
46392;BME280;32098;49.448;7.904;2023-03-11T05:13:40;97338.47;;;-0.83;64.93
46392;BME280;32098;49.448;7.904;2023-03-11T05:16:07;97334.88;;;-0.82;65.49
46392;BME280;32098;49.448;7.904;2023-03-11T05:18:34;97329.25;;;-0.79;65.27
46392;BME280;32098;49.448;7.904;2023-03-11T05:21:02;97335.38;;;-0.87;65.71
46392;BME280;32098;49.448;7.904;2023-03-11T05:23:30;97339.56;;;-0.92;65.58
46392;BME280;32098;49.448;7.904;2023-03-11T05:25:58;97336.47;;;-0.81;65.60
46392;BME280;32098;49.448;7.904;2023-03-11T05:28:24;97347.03;;;-0.89;64.63
46392;BME280;32098;49.448;7.904;2023-03-11T05:30:52;97349.31;;;-0.86;64.89
46392;BME280;32098;49.448;7.904;2023-03-11T05:33:19;97351.09;;;-0.87;64.99
46392;BME280;32098;49.448;7.904;2023-03-11T05:35:47;97345.44;;;-0.90;64.89
46392;BME280;32098;49.448;7.904;2023-03-11T05:38:14;97343.16;;;-0.93;65.52
46392;BME280;32098;49.448;7.904;2023-03-11T05:40:41;97347.50;;;-0.86;65.16
46392;BME280;32098;49.448;7.904;2023-03-11T05:43:07;97346.94;;;-0.96;65.40
46392;BME280;32098;49.448;7.904;2023-03-11T05:45:37;97358.88;;;-0.93;65.28
46392;BME280;32098;49.448;7.904;2023-03-11T05:48:05;97359.22;;;-0.96;65.77
46392;BME280;32098;49.448;7.904;2023-03-11T05:50:33;97360.94;;;-1.03;66.33
46392;BME280;32098;49.448;7.904;2023-03-11T05:53:00;97319.66;;;-1.39;66.86
46392;BME280;32098;49.448;7.904;2023-03-11T05:55:29;97350.31;;;-1.25;67.17
46392;BME280;32098;49.448;7.904;2023-03-11T05:57:55;97357.53;;;-1.27;66.70
46392;BME280;32098;49.448;7.904;2023-03-11T06:00:22;97352.66;;;-1.30;66.63
46392;BME280;32098;49.448;7.904;2023-03-11T06:02:51;97346.03;;;-1.40;66.69
46392;BME280;32098;49.448;7.904;2023-03-11T06:05:18;97361.69;;;-1.32;67.12
46392;BME280;32098;49.448;7.904;2023-03-11T06:07:47;97369.59;;;-1.18;66.56
46392;BME280;32098;49.448;7.904;2023-03-11T06:10:13;97359.16;;;-1.26;67.00
46392;BME280;32098;49.448;7.904;2023-03-11T06:12:40;97355.59;;;-1.47;67.51
46392;BME280;32098;49.448;7.904;2023-03-11T06:15:13;97371.22;;;-1.62;69.07
46392;BME280;32098;49.448;7.904;2023-03-11T06:17:41;97386.44;;;-1.35;68.39
46392;BME280;32098;49.448;7.904;2023-03-11T06:20:08;97377.19;;;-1.08;68.48
46392;BME280;32098;49.448;7.904;2023-03-11T06:22:35;97385.00;;;-0.85;67.83
46392;BME280;32098;49.448;7.904;2023-03-11T06:25:06;97377.81;;;-0.54;67.14
46392;BME280;32098;49.448;7.904;2023-03-11T06:27:33;97385.44;;;-0.45;65.72
46392;BME280;32098;49.448;7.904;2023-03-11T06:30:00;97393.19;;;-0.66;66.32
46392;BME280;32098;49.448;7.904;2023-03-11T06:32:30;97391.38;;;-0.51;66.60
46392;BME280;32098;49.448;7.904;2023-03-11T06:34:57;97394.53;;;-0.55;66.29
46392;BME280;32098;49.448;7.904;2023-03-11T06:37:23;97396.41;;;0.09;66.99
46392;BME280;32098;49.448;7.904;2023-03-11T06:39:51;97409.88;;;0.36;64.80
46392;BME280;32098;49.448;7.904;2023-03-11T06:42:21;97407.88;;;0.80;65.36
46392;BME280;32098;49.448;7.904;2023-03-11T06:44:55;97404.97;;;1.17;63.33
46392;BME280;32098;49.448;7.904;2023-03-11T06:47:22;97408.75;;;1.36;61.44
46392;BME280;32098;49.448;7.904;2023-03-11T06:49:51;97409.66;;;1.77;62.15
46392;BME280;32098;49.448;7.904;2023-03-11T06:52:18;97402.53;;;2.12;61.08
46392;BME280;32098;49.448;7.904;2023-03-11T06:54:45;97412.81;;;2.48;59.91
46392;BME280;32098;49.448;7.904;2023-03-11T06:57:14;97414.34;;;2.90;58.69
46392;BME280;32098;49.448;7.904;2023-03-11T06:59:41;97416.00;;;3.30;57.63
46392;BME280;32098;49.448;7.904;2023-03-11T07:02:12;97408.69;;;3.58;55.85
46392;BME280;32098;49.448;7.904;2023-03-11T07:04:40;97415.94;;;3.89;55.79
46392;BME280;32098;49.448;7.904;2023-03-11T07:07:07;97415.88;;;4.15;54.83
46392;BME280;32098;49.448;7.904;2023-03-11T07:09:33;97417.59;;;4.41;53.68
46392;BME280;32098;49.448;7.904;2023-03-11T07:12:01;97423.78;;;4.66;54.14
46392;BME280;32098;49.448;7.904;2023-03-11T07:14:33;97421.38;;;4.96;53.20
46392;BME280;32098;49.448;7.904;2023-03-11T07:17:01;97418.69;;;5.02;52.45
46392;BME280;32098;49.448;7.904;2023-03-11T07:19:33;97443.56;;;5.26;51.33
46392;BME280;32098;49.448;7.904;2023-03-11T07:22:00;97447.41;;;5.36;51.66
46392;BME280;32098;49.448;7.904;2023-03-11T07:24:26;97442.44;;;5.47;50.60
46392;BME280;32098;49.448;7.904;2023-03-11T07:26:53;97448.41;;;5.60;50.46
46392;BME280;32098;49.448;7.904;2023-03-11T07:29:19;97450.84;;;5.62;49.90
46392;BME280;32098;49.448;7.904;2023-03-11T07:31:46;97443.81;;;5.74;49.92
46392;BME280;32098;49.448;7.904;2023-03-11T07:34:13;97451.13;;;5.78;48.83
46392;BME280;32098;49.448;7.904;2023-03-11T07:36:40;97453.69;;;5.85;48.01
46392;BME280;32098;49.448;7.904;2023-03-11T07:39:09;97461.44;;;6.04;48.93
46392;BME280;32098;49.448;7.904;2023-03-11T07:41:37;97468.31;;;6.30;48.53
46392;BME280;32098;49.448;7.904;2023-03-11T07:44:04;97471.66;;;6.44;46.79
46392;BME280;32098;49.448;7.904;2023-03-11T07:46:31;97473.97;;;6.70;47.21
46392;BME280;32098;49.448;7.904;2023-03-11T07:48:58;97468.81;;;6.75;44.99
46392;BME280;32098;49.448;7.904;2023-03-11T07:51:31;97475.59;;;6.89;44.65
46392;BME280;32098;49.448;7.904;2023-03-11T07:53:59;97479.09;;;7.01;45.56
46392;BME280;32098;49.448;7.904;2023-03-11T07:56:29;97477.59;;;7.23;44.90
46392;BME280;32098;49.448;7.904;2023-03-11T07:58:57;97491.56;;;7.30;44.75
46392;BME280;32098;49.448;7.904;2023-03-11T08:01:26;97503.28;;;7.53;43.84
46392;BME280;32098;49.448;7.904;2023-03-11T08:03:55;97504.63;;;7.73;43.23
46392;BME280;32098;49.448;7.904;2023-03-11T08:06:26;97508.91;;;7.86;42.42
46392;BME280;32098;49.448;7.904;2023-03-11T08:08:54;97498.31;;;7.45;40.77
46392;BME280;32098;49.448;7.904;2023-03-11T08:11:20;97514.97;;;5.70;44.68
46392;BME280;32098;49.448;7.904;2023-03-11T08:13:48;97519.59;;;5.12;45.55
46392;BME280;32098;49.448;7.904;2023-03-11T08:16:17;97513.59;;;5.61;47.22
46392;BME280;32098;49.448;7.904;2023-03-11T08:18:46;97510.75;;;5.31;45.28
46392;BME280;32098;49.448;7.904;2023-03-11T08:21:15;97516.84;;;5.63;46.05
46392;BME280;32098;49.448;7.904;2023-03-11T08:23:42;97505.91;;;6.45;44.80
46392;BME280;32098;49.448;7.904;2023-03-11T08:26:12;97511.97;;;7.18;44.34
46392;BME280;32098;49.448;7.904;2023-03-11T08:28:38;97517.31;;;7.71;42.72
46392;BME280;32098;49.448;7.904;2023-03-11T08:31:16;97515.88;;;6.98;43.17
46392;BME280;32098;49.448;7.904;2023-03-11T08:33:45;97516.94;;;6.79;42.22
46392;BME280;32098;49.448;7.904;2023-03-11T08:36:12;97527.69;;;6.47;42.58
46392;BME280;32098;49.448;7.904;2023-03-11T08:38:39;97523.41;;;7.01;42.15
46392;BME280;32098;49.448;7.904;2023-03-11T08:41:06;97522.03;;;6.62;40.96
46392;BME280;32098;49.448;7.904;2023-03-11T08:43:33;97537.97;;;7.28;41.88
46392;BME280;32098;49.448;7.904;2023-03-11T08:46:01;97530.78;;;8.00;40.33
46392;BME280;32098;49.448;7.904;2023-03-11T08:48:29;97520.13;;;8.46;37.88
46392;BME280;32098;49.448;7.904;2023-03-11T08:50:55;97516.22;;;6.53;38.14
46392;BME280;32098;49.448;7.904;2023-03-11T08:53:22;97524.41;;;5.84;41.34
46392;BME280;32098;49.448;7.904;2023-03-11T08:55:50;97534.50;;;5.45;42.93
46392;BME280;32098;49.448;7.904;2023-03-11T08:58:17;97538.38;;;5.73;42.42
46392;BME280;32098;49.448;7.904;2023-03-11T09:00:44;97524.28;;;6.22;43.38
46392;BME280;32098;49.448;7.904;2023-03-11T09:03:12;97524.75;;;6.37;41.97
46392;BME280;32098;49.448;7.904;2023-03-11T09:05:39;97532.16;;;5.23;41.68
46392;BME280;32098;49.448;7.904;2023-03-11T09:08:05;97530.75;;;5.59;42.13
46392;BME280;32098;49.448;7.904;2023-03-11T09:10:32;97526.53;;;6.00;40.57
46392;BME280;32098;49.448;7.904;2023-03-11T09:12:58;97526.06;;;4.79;41.34
46392;BME280;32098;49.448;7.904;2023-03-11T09:15:25;97532.34;;;5.60;42.04
46392;BME280;32098;49.448;7.904;2023-03-11T09:17:51;97541.66;;;4.93;40.06
46392;BME280;32098;49.448;7.904;2023-03-11T09:20:19;97540.47;;;4.05;42.27
46392;BME280;32098;49.448;7.904;2023-03-11T09:22:46;97526.84;;;5.30;42.04
46392;BME280;32098;49.448;7.904;2023-03-11T09:25:13;97536.19;;;5.39;39.86
46392;BME280;32098;49.448;7.904;2023-03-11T09:27:40;97536.78;;;4.90;41.72
46392;BME280;32098;49.448;7.904;2023-03-11T09:30:08;97537.00;;;4.89;41.50
46392;BME280;32098;49.448;7.904;2023-03-11T09:32:34;97527.03;;;5.60;41.06
46392;BME280;32098;49.448;7.904;2023-03-11T09:35:01;97528.44;;;6.36;39.08
46392;BME280;32098;49.448;7.904;2023-03-11T09:37:28;97535.13;;;5.96;39.25
46392;BME280;32098;49.448;7.904;2023-03-11T09:39:55;97529.91;;;6.87;39.46
46392;BME280;32098;49.448;7.904;2023-03-11T09:42:56;97532.00;;;7.32;38.35
46392;BME280;32098;49.448;7.904;2023-03-11T09:45:29;97529.03;;;7.52;35.12
46392;BME280;32098;49.448;7.904;2023-03-11T09:50:59;97531.81;;;8.56;35.46
46392;BME280;32098;49.448;7.904;2023-03-11T09:53:38;97522.91;;;8.28;34.07
46392;BME280;32098;49.448;7.904;2023-03-11T09:56:08;97541.75;;;8.03;36.04
46392;BME280;32098;49.448;7.904;2023-03-11T09:58:47;97532.38;;;8.58;34.98
46392;BME280;32098;49.448;7.904;2023-03-11T10:01:26;97523.25;;;8.43;32.96
46392;BME280;32098;49.448;7.904;2023-03-11T10:03:56;97522.41;;;8.89;34.57
46392;BME280;32098;49.448;7.904;2023-03-11T10:06:28;97530.66;;;9.15;35.16
46392;BME280;32098;49.448;7.904;2023-03-11T10:11:46;97519.16;;;9.55;32.34
46392;BME280;32098;49.448;7.904;2023-03-11T10:14:38;97530.28;;;9.52;33.12
46392;BME280;32098;49.448;7.904;2023-03-11T10:19:47;97536.69;;;7.19;36.18
46392;BME280;32098;49.448;7.904;2023-03-11T10:25:06;97551.88;;;6.94;37.56
46392;BME280;32098;49.448;7.904;2023-03-11T10:30:33;97553.56;;;6.88;35.03
46392;BME280;32098;49.448;7.904;2023-03-11T10:36:23;97559.31;;;4.99;40.29
46392;BME280;32098;49.448;7.904;2023-03-11T10:38:54;97552.44;;;5.74;38.61
46392;BME280;32098;49.448;7.904;2023-03-11T10:44:10;97558.06;;;4.64;37.08
46392;BME280;32098;49.448;7.904;2023-03-11T10:46:39;97550.97;;;5.02;38.19
46392;BME280;32098;49.448;7.904;2023-03-11T10:49:13;97549.59;;;4.93;40.72
46392;BME280;32098;49.448;7.904;2023-03-11T10:51:46;97562.19;;;5.42;41.76
46392;BME280;32098;49.448;7.904;2023-03-11T10:54:41;97550.84;;;5.66;39.70
46392;BME280;32098;49.448;7.904;2023-03-11T10:57:25;97553.75;;;6.14;39.23
46392;BME280;32098;49.448;7.904;2023-03-11T10:59:53;97554.81;;;6.49;38.63
46392;BME280;32098;49.448;7.904;2023-03-11T11:02:30;97559.31;;;6.85;37.09
46392;BME280;32098;49.448;7.904;2023-03-11T11:07:37;97554.88;;;6.97;36.72
46392;BME280;32098;49.448;7.904;2023-03-11T11:10:17;97543.94;;;7.12;35.02
46392;BME280;32098;49.448;7.904;2023-03-11T11:12:59;97548.91;;;7.20;34.07
46392;BME280;32098;49.448;7.904;2023-03-11T11:15:33;97548.69;;;7.51;34.92
46392;BME280;32098;49.448;7.904;2023-03-11T11:18:05;97548.16;;;7.72;33.79
46392;BME280;32098;49.448;7.904;2023-03-11T11:20:52;97548.13;;;7.49;33.94
46392;BME280;32098;49.448;7.904;2023-03-11T11:23:46;97549.56;;;7.75;33.35
46392;BME280;32098;49.448;7.904;2023-03-11T11:26:22;97555.50;;;5.71;35.97
46392;BME280;32098;49.448;7.904;2023-03-11T11:31:36;97556.75;;;4.86;40.12
46392;BME280;32098;49.448;7.904;2023-03-11T11:34:27;97554.38;;;4.71;40.26
46392;BME280;32098;49.448;7.904;2023-03-11T11:36:49;97553.50;;;4.84;40.62
46392;BME280;32098;49.448;7.904;2023-03-11T11:39:19;97556.84;;;4.60;39.68
46392;BME280;32098;49.448;7.904;2023-03-11T11:41:47;97555.28;;;4.20;40.80
46392;BME280;32098;49.448;7.904;2023-03-11T11:44:19;97554.66;;;4.44;40.22
46392;BME280;32098;49.448;7.904;2023-03-11T11:46:51;97549.22;;;3.86;38.87
46392;BME280;32098;49.448;7.904;2023-03-11T11:49:21;97547.59;;;3.72;38.94
46392;BME280;32098;49.448;7.904;2023-03-11T11:52:17;97546.34;;;4.21;39.93
46392;BME280;32098;49.448;7.904;2023-03-11T11:55:02;97542.34;;;4.75;39.86
46392;BME280;32098;49.448;7.904;2023-03-11T11:57:29;97540.38;;;5.09;38.43
46392;BME280;32098;49.448;7.904;2023-03-11T11:59:56;97528.19;;;5.46;39.43
46392;BME280;32098;49.448;7.904;2023-03-11T12:05:18;97527.06;;;6.09;39.79
46392;BME280;32098;49.448;7.904;2023-03-11T12:10:42;97530.56;;;6.46;36.48
46392;BME280;32098;49.448;7.904;2023-03-11T12:13:30;97533.00;;;6.47;36.74
46392;BME280;32098;49.448;7.904;2023-03-11T12:16:13;97531.91;;;6.55;36.56
46392;BME280;32098;49.448;7.904;2023-03-11T12:18:47;97528.88;;;6.33;35.21
46392;BME280;32098;49.448;7.904;2023-03-11T12:26:58;97525.41;;;6.33;38.68
46392;BME280;32098;49.448;7.904;2023-03-11T12:29:33;97524.47;;;4.71;38.36
46392;BME280;32098;49.448;7.904;2023-03-11T12:32:02;97518.13;;;4.72;40.83
46392;BME280;32098;49.448;7.904;2023-03-11T12:34:33;97542.69;;;4.92;41.51
46392;BME280;32098;49.448;7.904;2023-03-11T12:37:01;97536.25;;;4.75;40.86
46392;BME280;32098;49.448;7.904;2023-03-11T12:39:31;97532.25;;;5.04;41.39
46392;BME280;32098;49.448;7.904;2023-03-11T12:44:37;97477.59;;;5.29;40.97
46392;BME280;32098;49.448;7.904;2023-03-11T12:49:43;97498.19;;;6.01;40.35
46392;BME280;32098;49.448;7.904;2023-03-11T12:54:41;97488.22;;;6.21;39.06
46392;BME280;32098;49.448;7.904;2023-03-11T12:57:35;97515.03;;;6.31;36.53
46392;BME280;32098;49.448;7.904;2023-03-11T13:00:07;97521.47;;;5.99;35.15
46392;BME280;32098;49.448;7.904;2023-03-11T13:08:15;97529.50;;;5.86;35.04
46392;BME280;32098;49.448;7.904;2023-03-11T13:10:50;97534.97;;;5.35;35.02
46392;BME280;32098;49.448;7.904;2023-03-11T13:15:53;97529.69;;;5.60;40.09
46392;BME280;32098;49.448;7.904;2023-03-11T13:18:24;97526.50;;;5.13;39.90
46392;BME280;32098;49.448;7.904;2023-03-11T13:20:57;97513.94;;;5.40;39.52
46392;BME280;32098;49.448;7.904;2023-03-11T13:23:26;97503.69;;;5.50;39.15
46392;BME280;32098;49.448;7.904;2023-03-11T13:28:28;97500.25;;;4.74;41.08
46392;BME280;32098;49.448;7.904;2023-03-11T13:31:20;97510.97;;;5.23;41.41
46392;BME280;32098;49.448;7.904;2023-03-11T13:33:51;97505.09;;;4.26;42.38
46392;BME280;32098;49.448;7.904;2023-03-11T13:36:40;97522.75;;;4.39;40.70
46392;BME280;32098;49.448;7.904;2023-03-11T13:39:23;97513.78;;;4.46;41.98
46392;BME280;32098;49.448;7.904;2023-03-11T13:41:51;97522.41;;;3.96;41.01
46392;BME280;32098;49.448;7.904;2023-03-11T13:46:47;97523.75;;;3.13;43.42
46392;BME280;32098;49.448;7.904;2023-03-11T13:51:59;97532.41;;;2.94;44.19
46392;BME280;32098;49.448;7.904;2023-03-11T13:54:46;97533.03;;;2.55;44.38
46392;BME280;32098;49.448;7.904;2023-03-11T13:57:21;97531.41;;;2.54;45.48
46392;BME280;32098;49.448;7.904;2023-03-11T13:59:53;97535.22;;;2.45;45.13
46392;BME280;32098;49.448;7.904;2023-03-11T14:02:25;97524.63;;;2.39;44.97
46392;BME280;32098;49.448;7.904;2023-03-11T14:05:04;97531.72;;;2.79;45.91
46392;BME280;32098;49.448;7.904;2023-03-11T14:07:33;97521.47;;;2.97;45.09
46392;BME280;32098;49.448;7.904;2023-03-11T14:10:22;97526.34;;;2.94;44.29
46392;BME280;32098;49.448;7.904;2023-03-11T14:12:50;97528.44;;;2.70;44.14
46392;BME280;32098;49.448;7.904;2023-03-11T14:15:24;97539.59;;;2.66;45.29
46392;BME280;32098;49.448;7.904;2023-03-11T14:17:52;97547.75;;;2.77;44.34
46392;BME280;32098;49.448;7.904;2023-03-11T14:20:21;97547.47;;;3.07;45.19
46392;BME280;32098;49.448;7.904;2023-03-11T14:22:52;97558.44;;;3.17;43.61
46392;BME280;32098;49.448;7.904;2023-03-11T14:25:27;97561.34;;;3.28;44.24
46392;BME280;32098;49.448;7.904;2023-03-11T14:27:58;97556.66;;;3.30;42.22
46392;BME280;32098;49.448;7.904;2023-03-11T14:30:31;97530.13;;;3.58;43.10
46392;BME280;32098;49.448;7.904;2023-03-11T14:33:02;97559.59;;;3.81;42.24